KTOR/TOR METAR and TAF weather

Enter ICAO airport designator
Station Type Date Time Source
KTOR METAR 2020/01/21 14:53 UTC NOAA

KTOR 211453Z AUTO 07006KT 10SM OVC080 M04/M08 A2996 RMK AO2 SLP178 T10441078 56018


Station Type Date Time Source
KTOR Decoded METAR 2020/01/21 14:53 UTC NOAA

TORRINGTON MUNICIPAL AIRPORT, WY, United States (KTOR) 42-03N 104-09W 1277M
Jan 21, 2020 - 09:53 AM EST / 2020.01.21 1453 UTC
Wind: from the ENE (070 degrees) at 7 MPH (6 KT):0
Visibility: 10 mile(s):0
Sky conditions: overcast
Temperature: 24.1 F (-4.4 C)
Windchill: 15 F (-9 C):1
Dew Point: 18.0 F (-7.8 C)
Relative Humidity: 77%
Pressure (altimeter): 29.96 in. Hg (1014 hPa)
Pressure tendency: 0.05 inches (1.8 hPa) lower than three hours ago
ob: KTOR 211453Z AUTO 07006KT 10SM OVC080 M04/M08 A2996 RMK AO2 SLP178 T10441078 56018
cycle: 15

Station Type Date Time Source
KTOR TAF UTC NOAA

Error!

Example: see airport list